createdAt,value
2023-01-21T00:01:56.411Z,96970.81
2023-01-21T00:04:53.185Z,96964.09
2023-01-21T00:07:49.977Z,96971.38
2023-01-21T00:10:46.711Z,96974.78
2023-01-21T00:13:45.186Z,96967.88
2023-01-21T00:16:41.946Z,96976.72
2023-01-21T00:19:38.689Z,96984.97
2023-01-21T00:22:35.445Z,96980.91
2023-01-21T00:25:32.184Z,96978.31
2023-01-21T00:28:30.207Z,96977.47
2023-01-21T00:31:27.838Z,96976.59
2023-01-21T00:34:24.666Z,96975.22
2023-01-21T00:37:21.421Z,96975.00
2023-01-21T00:40:18.637Z,96976.00
2023-01-21T00:43:15.622Z,96975.59
2023-01-21T00:46:12.443Z,96974.38
2023-01-21T00:49:09.340Z,96974.78
2023-01-21T00:52:06.126Z,96974.16
2023-01-21T00:55:02.947Z,96985.50
2023-01-21T00:57:59.704Z,96984.47
2023-01-21T01:01:08.448Z,96979.88
2023-01-21T01:04:06.036Z,96981.28
2023-01-21T01:07:02.901Z,96983.09
2023-01-21T01:09:59.644Z,96986.28
2023-01-21T01:12:56.406Z,96987.16
2023-01-21T01:15:56.020Z,96985.94
2023-01-21T01:18:52.911Z,96999.44
2023-01-21T01:21:49.680Z,97001.31
2023-01-21T01:24:46.438Z,96999.88
2023-01-21T01:27:43.201Z,97003.06
2023-01-21T01:30:39.959Z,97003.50
2023-01-21T01:33:36.712Z,97013.41
2023-01-21T01:36:33.463Z,97011.97
2023-01-21T01:39:30.624Z,97014.81
2023-01-21T01:42:27.363Z,97017.63
2023-01-21T01:45:24.086Z,97018.00
2023-01-21T01:48:30.981Z,97020.84
2023-01-21T01:51:42.494Z,97027.69
2023-01-21T01:54:48.010Z,97025.06
2023-01-21T01:57:49.499Z,97023.22
2023-01-21T02:00:46.413Z,97029.06
2023-01-21T02:03:46.019Z,97026.66
2023-01-21T02:06:42.862Z,97034.72
2023-01-21T02:09:39.628Z,97028.03
2023-01-21T02:12:38.031Z,97027.22
2023-01-21T02:15:53.334Z,97031.06
2023-01-21T02:19:12.435Z,97034.28
2023-01-21T02:22:29.210Z,97031.06
2023-01-21T02:26:09.655Z,97030.88
2023-01-21T02:29:28.291Z,97035.53
2023-01-21T02:32:39.595Z,97039.19
2023-01-21T02:35:55.932Z,97038.94
2023-01-21T02:39:15.816Z,97037.72
2023-01-21T02:42:23.488Z,97035.50
2023-01-21T02:45:22.303Z,97035.47
2023-01-21T02:48:32.718Z,97025.97
2023-01-21T02:51:29.484Z,97039.66
2023-01-21T02:54:41.156Z,97035.88
2023-01-21T02:57:53.653Z,97040.75
2023-01-21T03:01:27.005Z,97043.97
2023-01-21T03:04:43.272Z,97032.72
2023-01-21T03:08:02.565Z,97032.28
2023-01-21T03:11:16.984Z,97024.41
2023-01-21T03:14:41.418Z,97026.19
2023-01-21T03:18:01.808Z,97032.09
2023-01-21T03:21:04.322Z,97035.50
2023-01-21T03:24:02.239Z,97037.53
2023-01-21T03:27:00.780Z,97028.03
2023-01-21T03:30:17.121Z,97044.19
2023-01-21T03:33:15.423Z,97029.28
2023-01-21T03:36:19.731Z,97037.16
2023-01-21T03:39:25.895Z,97037.94
2023-01-21T03:42:22.846Z,97042.59
2023-01-21T03:45:28.253Z,97055.75
2023-01-21T03:48:46.877Z,97054.72
2023-01-21T03:51:48.209Z,97048.09
2023-01-21T03:54:47.035Z,97044.22
2023-01-21T03:57:43.827Z,97039.00
2023-01-21T04:00:40.693Z,97038.19
2023-01-21T04:03:37.487Z,97041.03
2023-01-21T04:06:34.606Z,97044.66
2023-01-21T04:09:31.402Z,97038.19
2023-01-21T04:12:28.175Z,97039.41
2023-01-21T04:15:24.940Z,97050.28
2023-01-21T04:18:21.703Z,97037.38
2023-01-21T04:21:18.449Z,97033.97
2023-01-21T04:24:15.203Z,97039.22
2023-01-21T04:27:11.975Z,97040.28
2023-01-21T04:30:09.268Z,97042.94
2023-01-21T04:33:06.037Z,97034.63
2023-01-21T04:36:02.803Z,97043.53
2023-01-21T04:38:59.584Z,97028.63
2023-01-21T04:41:56.352Z,97038.50
2023-01-21T04:44:53.122Z,97040.16
2023-01-21T04:47:49.894Z,97043.97
2023-01-21T04:50:46.816Z,97045.19
2023-01-21T04:53:43.617Z,97043.59
2023-01-21T04:56:40.401Z,97038.94
2023-01-21T04:59:37.388Z,97044.59
2023-01-21T05:02:34.569Z,97052.47
2023-01-21T05:05:31.339Z,97043.19
2023-01-21T05:08:28.174Z,97045.00
2023-01-21T05:11:25.511Z,97040.16
2023-01-21T05:14:22.619Z,97047.41
2023-01-21T05:17:19.653Z,97049.41
2023-01-21T05:20:17.451Z,97051.44
2023-01-21T05:23:14.423Z,97045.59
2023-01-21T05:26:11.187Z,97047.03
2023-01-21T05:29:07.974Z,97048.41
2023-01-21T05:32:04.920Z,97044.19
2023-01-21T05:35:01.677Z,97048.63
2023-01-21T05:38:00.389Z,97055.69
2023-01-21T05:40:59.121Z,97044.78
2023-01-21T05:43:56.021Z,97051.25
2023-01-21T05:46:52.788Z,97049.06
2023-01-21T05:49:49.549Z,97055.31
2023-01-21T05:52:46.308Z,97049.22
2023-01-21T05:55:43.058Z,97051.84
2023-01-21T05:58:39.821Z,97055.91
2023-01-21T06:01:36.653Z,97056.69
2023-01-21T06:04:34.001Z,97055.91
2023-01-21T06:07:31.182Z,97063.94
2023-01-21T06:10:28.103Z,97069.00
2023-01-21T06:13:25.153Z,97066.97
2023-01-21T06:16:21.909Z,97071.88
2023-01-21T06:19:18.701Z,97062.59
2023-01-21T06:22:16.568Z,97064.78
2023-01-21T06:25:13.309Z,97072.28
2023-01-21T06:28:13.191Z,97072.88
2023-01-21T06:31:10.063Z,97063.59
2023-01-21T06:34:06.884Z,97083.94
2023-01-21T06:37:03.644Z,97077.50
2023-01-21T06:40:00.421Z,97087.19
2023-01-21T06:42:57.189Z,97085.78
2023-01-21T06:45:54.042Z,97106.53
2023-01-21T06:48:52.046Z,97104.31
2023-01-21T06:51:50.376Z,97114.81
2023-01-21T06:54:48.210Z,97119.63
2023-01-21T06:57:45.327Z,97121.84
2023-01-21T07:00:42.325Z,97125.06
2023-01-21T07:03:39.100Z,97146.63
2023-01-21T07:06:36.327Z,97138.78
2023-01-21T07:09:33.072Z,97141.38
2023-01-21T07:12:29.895Z,97152.28
2023-01-21T07:15:30.806Z,97160.13
2023-01-21T07:18:27.753Z,97150.06
2023-01-21T07:21:25.020Z,97168.59
2023-01-21T07:24:22.042Z,97161.75
2023-01-21T07:27:18.804Z,97165.78
2023-01-21T07:30:19.881Z,97165.38
2023-01-21T07:33:16.671Z,97169.81
2023-01-21T07:36:13.416Z,97168.81
2023-01-21T07:39:10.247Z,97174.03
2023-01-21T07:42:07.012Z,97173.44
2023-01-21T07:45:04.419Z,97178.06
2023-01-21T07:48:01.732Z,97181.69
2023-01-21T07:50:59.283Z,97176.66
2023-01-21T07:53:56.810Z,97188.53
2023-01-21T07:56:53.580Z,97191.56
2023-01-21T07:59:50.351Z,97182.91
2023-01-21T08:02:51.707Z,97190.94
2023-01-21T08:05:48.558Z,97187.53
2023-01-21T08:08:45.315Z,97185.72
2023-01-21T08:11:43.603Z,97197.41
2023-01-21T08:14:40.468Z,97195.19
2023-01-21T08:17:42.746Z,97198.00
2023-01-21T08:20:39.487Z,97214.53
2023-01-21T08:23:36.948Z,97209.69
2023-01-21T08:26:33.881Z,97202.84
2023-01-21T08:29:31.103Z,97214.13
2023-01-21T08:32:30.934Z,97218.16
2023-01-21T08:35:27.746Z,97218.78
2023-01-21T08:38:24.564Z,97215.94
2023-01-21T08:41:23.971Z,97210.53
2023-01-21T08:44:20.729Z,97225.75
2023-01-21T08:47:18.242Z,97233.66
2023-01-21T08:50:15.248Z,97230.81
2023-01-21T08:53:12.103Z,97239.28
2023-01-21T08:56:08.881Z,97241.72
2023-01-21T08:59:05.821Z,97255.03
2023-01-21T09:02:02.720Z,97245.25
2023-01-21T09:04:59.492Z,97239.47
2023-01-21T09:07:58.090Z,97249.53
2023-01-21T09:11:01.781Z,97246.47
2023-01-21T09:14:03.433Z,97251.34
2023-01-21T09:17:00.370Z,97253.38
2023-01-21T09:19:57.116Z,97269.28
2023-01-21T09:22:53.880Z,97269.47
2023-01-21T09:26:02.204Z,97267.28
2023-01-21T09:29:00.663Z,97275.91
2023-01-21T09:31:57.469Z,97268.06
2023-01-21T09:34:54.237Z,97278.78
2023-01-21T09:37:51.270Z,97289.53
2023-01-21T09:40:48.110Z,97290.72
2023-01-21T09:43:49.033Z,97272.50
2023-01-21T09:46:48.624Z,97276.19
2023-01-21T09:49:54.015Z,97274.38
2023-01-21T09:52:53.446Z,97273.59
2023-01-21T09:55:53.001Z,97275.41
2023-01-21T09:59:07.305Z,97277.00
2023-01-21T10:02:09.370Z,97273.63
2023-01-21T10:05:24.397Z,97275.00
2023-01-21T10:08:26.211Z,97274.44
2023-01-21T10:11:47.261Z,97276.25
2023-01-21T10:15:18.042Z,97273.63
2023-01-21T10:18:18.844Z,97268.59
2023-01-21T10:21:28.790Z,97267.19
2023-01-21T10:24:38.930Z,97273.03
2023-01-21T10:27:37.741Z,97273.41
2023-01-21T10:30:46.363Z,97269.78
2023-01-21T10:33:43.210Z,97255.88
2023-01-21T10:36:45.572Z,97258.91
2023-01-21T10:39:59.033Z,97259.31
2023-01-21T10:43:40.547Z,97260.34
2023-01-21T10:47:03.026Z,97251.25
2023-01-21T10:50:26.616Z,97255.69
2023-01-21T10:53:39.736Z,97257.69
2023-01-21T10:56:41.830Z,97260.31
2023-01-21T10:59:40.219Z,97256.28
2023-01-21T11:02:37.071Z,97263.56
2023-01-21T11:05:34.008Z,97263.56
2023-01-21T11:08:31.030Z,97269.19
2023-01-21T11:11:33.190Z,97258.50
2023-01-21T11:14:30.016Z,97266.75
2023-01-21T11:17:36.390Z,97268.38
2023-01-21T11:20:40.951Z,97257.50
2023-01-21T11:23:39.250Z,97263.34
2023-01-21T11:26:36.662Z,97260.13
2023-01-21T11:29:40.205Z,97270.41
2023-01-21T11:32:36.947Z,97263.75
2023-01-21T11:35:33.693Z,97275.03
2023-01-21T11:38:35.233Z,97273.66
2023-01-21T11:41:32.252Z,97257.09
2023-01-21T11:44:29.011Z,97270.78
2023-01-21T11:47:47.101Z,97275.44
2023-01-21T11:50:43.977Z,97264.56
2023-01-21T11:53:41.329Z,97266.75
2023-01-21T11:56:38.265Z,97243.00
2023-01-21T11:59:38.959Z,97261.13
2023-01-21T12:02:40.969Z,97258.31
2023-01-21T12:05:43.011Z,97266.38
2023-01-21T12:08:40.213Z,97256.28
2023-01-21T12:11:37.182Z,97267.00
2023-01-21T12:14:54.498Z,97253.09
2023-01-21T12:18:22.721Z,97259.31
2023-01-21T12:21:26.040Z,97256.69
2023-01-21T12:24:44.439Z,97254.66
2023-01-21T12:28:06.285Z,97250.66
2023-01-21T12:31:13.968Z,97240.56
2023-01-21T12:34:20.698Z,97247.00
2023-01-21T12:37:47.005Z,97240.53
2023-01-21T12:40:57.550Z,97243.34
2023-01-21T12:44:04.884Z,97240.53
2023-01-21T12:47:10.219Z,97251.25
2023-01-21T12:50:21.778Z,97240.53
2023-01-21T12:53:23.356Z,97236.50
2023-01-21T12:56:32.369Z,97231.06
2023-01-21T12:59:53.782Z,97233.28
2023-01-21T13:03:10.124Z,97220.34
2023-01-21T13:06:42.572Z,97229.41
2023-01-21T13:10:00.735Z,97238.91
2023-01-21T13:13:15.053Z,97230.59
2023-01-21T13:16:12.283Z,97231.03
2023-01-21T13:19:12.564Z,97227.38
2023-01-21T13:22:27.446Z,97236.06
2023-01-21T13:25:58.509Z,97229.59
2023-01-21T13:29:03.054Z,97225.16
2023-01-21T13:32:22.831Z,97217.88
2023-01-21T13:35:33.925Z,97234.25
2023-01-21T13:38:33.555Z,97231.41
2023-01-21T13:41:35.965Z,97243.13
2023-01-21T13:44:38.739Z,97235.06
2023-01-21T13:47:41.790Z,97231.56
2023-01-21T13:50:49.911Z,97227.38
2023-01-21T13:54:00.467Z,97218.50
2023-01-21T13:57:03.092Z,97223.97
2023-01-21T14:00:17.568Z,97218.28
2023-01-21T14:03:23.711Z,97216.88
2023-01-21T14:06:20.353Z,97213.47
2023-01-21T14:09:41.235Z,97209.00
2023-01-21T14:13:04.741Z,97213.59
2023-01-21T14:16:32.766Z,97209.38
2023-01-21T14:19:45.065Z,97207.78
2023-01-21T14:23:03.280Z,97204.38
2023-01-21T14:26:21.222Z,97192.41
2023-01-21T14:29:33.330Z,97187.38
2023-01-21T14:33:08.308Z,97184.16
2023-01-21T14:36:12.768Z,97181.19
2023-01-21T14:39:48.078Z,97176.66
2023-01-21T14:42:47.794Z,97173.47
2023-01-21T14:45:53.273Z,97174.25
2023-01-21T14:49:10.444Z,97181.72
2023-01-21T14:52:07.301Z,97165.16
2023-01-21T14:55:23.814Z,97176.88
2023-01-21T14:58:23.936Z,97164.53
2023-01-21T15:01:29.978Z,97165.91
2023-01-21T15:04:30.578Z,97165.34
2023-01-21T15:07:43.277Z,97147.56
2023-01-21T15:10:40.784Z,97162.28
2023-01-21T15:13:39.219Z,97162.50
2023-01-21T15:16:42.662Z,97154.41
2023-01-21T15:19:39.476Z,97151.13
2023-01-21T15:22:41.065Z,97154.19
2023-01-21T15:25:37.823Z,97153.75
2023-01-21T15:28:44.305Z,97164.22
2023-01-21T15:31:44.302Z,97166.50
2023-01-21T15:34:42.322Z,97167.06
2023-01-21T15:37:41.133Z,97167.44
2023-01-21T15:40:42.070Z,97153.72
2023-01-21T15:43:49.756Z,97161.41
2023-01-21T15:46:57.096Z,97162.19
2023-01-21T15:50:05.670Z,97158.97
2023-01-21T15:53:28.542Z,97160.19
2023-01-21T15:57:11.001Z,97168.06
2023-01-21T16:00:28.946Z,97170.25
2023-01-21T16:03:35.283Z,97168.41
2023-01-21T16:06:45.012Z,97164.34
2023-01-21T16:10:00.258Z,97170.44
2023-01-21T16:13:23.496Z,97178.31
2023-01-21T16:16:47.013Z,97172.47
2023-01-21T16:19:47.419Z,97169.22
2023-01-21T16:22:48.200Z,97172.06
2023-01-21T16:25:49.624Z,97165.59
2023-01-21T16:28:49.706Z,97174.84
2023-01-21T16:31:49.927Z,97160.28
2023-01-21T16:34:47.156Z,97167.56
2023-01-21T16:37:53.238Z,97166.13
2023-01-21T16:40:51.439Z,97174.22
2023-01-21T16:43:57.369Z,97170.94
2023-01-21T16:46:54.297Z,97170.38
2023-01-21T16:49:51.180Z,97165.28
2023-01-21T16:52:48.483Z,97165.06
2023-01-21T16:55:47.161Z,97170.47
2023-01-21T16:58:47.401Z,97168.28
2023-01-21T17:01:44.201Z,97164.69
2023-01-21T17:04:41.042Z,97169.69
2023-01-21T17:07:42.364Z,97174.31
2023-01-21T17:10:51.245Z,97150.81
2023-01-21T17:13:48.798Z,97169.44
2023-01-21T17:16:45.555Z,97160.97
2023-01-21T17:19:43.639Z,97154.69
2023-01-21T17:22:44.042Z,97157.09
2023-01-21T17:25:41.301Z,97152.28
2023-01-21T17:28:59.762Z,97155.50
2023-01-21T17:32:02.580Z,97143.34
2023-01-21T17:35:18.098Z,97156.03
2023-01-21T17:38:29.584Z,97145.88
2023-01-21T17:41:28.286Z,97153.19
2023-01-21T17:44:25.564Z,97150.78
2023-01-21T17:47:31.393Z,97144.53
2023-01-21T17:50:34.406Z,97136.28
2023-01-21T17:53:31.275Z,97145.34
2023-01-21T17:56:38.657Z,97143.38
2023-01-21T17:59:41.003Z,97142.03
2023-01-21T18:02:37.791Z,97140.81
2023-01-21T18:05:36.519Z,97141.69
2023-01-21T18:08:34.279Z,97141.25
2023-01-21T18:11:31.060Z,97143.25
2023-01-21T18:14:28.765Z,97138.75
2023-01-21T18:17:25.717Z,97136.78
2023-01-21T18:20:25.138Z,97134.28
2023-01-21T18:23:21.900Z,97128.88
2023-01-21T18:26:28.487Z,97131.09
2023-01-21T18:29:31.249Z,97134.94
2023-01-21T18:32:28.070Z,97133.94
2023-01-21T18:35:28.731Z,97129.91
2023-01-21T18:38:31.561Z,97129.88
2023-01-21T18:41:29.465Z,97142.25
2023-01-21T18:44:26.228Z,97137.94
2023-01-21T18:47:23.038Z,97134.97
2023-01-21T18:50:22.753Z,97131.94
2023-01-21T18:53:19.532Z,97127.75
2023-01-21T18:56:16.422Z,97122.31
2023-01-21T18:59:15.454Z,97129.72
2023-01-21T19:02:17.637Z,97125.53
2023-01-21T19:05:15.100Z,97128.44
2023-01-21T19:08:15.294Z,97136.78
2023-01-21T19:11:12.645Z,97127.91
2023-01-21T19:14:09.405Z,97113.75
2023-01-21T19:17:10.888Z,97115.16
2023-01-21T19:20:21.214Z,97108.31
2023-01-21T19:23:18.291Z,97114.41
2023-01-21T19:26:15.608Z,97100.81
2023-01-21T19:29:16.569Z,97110.28
2023-01-21T19:32:14.743Z,97106.00
2023-01-21T19:35:20.419Z,97106.84
2023-01-21T19:38:19.195Z,97100.81
2023-01-21T19:41:15.927Z,97097.59
2023-01-21T19:44:12.702Z,97105.69
2023-01-21T19:47:18.593Z,97095.88
2023-01-21T19:50:24.425Z,97087.22
2023-01-21T19:53:22.328Z,97093.91
2023-01-21T19:56:22.825Z,97090.63
2023-01-21T19:59:19.584Z,97093.84
2023-01-21T20:02:16.350Z,97092.06
2023-01-21T20:05:13.152Z,97102.13
2023-01-21T20:08:15.157Z,97090.25
2023-01-21T20:11:11.940Z,97094.09
2023-01-21T20:14:08.709Z,97084.59
2023-01-21T20:17:05.605Z,97093.50
2023-01-21T20:20:13.319Z,97098.84
2023-01-21T20:23:15.348Z,97091.84
2023-01-21T20:26:17.026Z,97097.47
2023-01-21T20:29:16.522Z,97093.13
2023-01-21T20:32:13.277Z,97108.38
2023-01-21T20:35:10.574Z,97093.16
2023-01-21T20:38:12.484Z,97095.16
2023-01-21T20:41:09.567Z,97097.25
2023-01-21T20:44:06.563Z,97092.81
2023-01-21T20:47:03.509Z,97102.31
2023-01-21T20:50:00.254Z,97097.47
2023-01-21T20:52:58.186Z,97101.06
2023-01-21T20:55:55.762Z,97098.66
2023-01-21T20:58:52.700Z,97093.56
2023-01-21T21:01:51.284Z,97099.53
2023-01-21T21:04:48.367Z,97092.13
2023-01-21T21:07:45.269Z,97104.47
2023-01-21T21:10:42.161Z,97095.59
2023-01-21T21:13:38.935Z,97094.94
2023-01-21T21:16:35.908Z,97092.94
2023-01-21T21:19:32.717Z,97102.16
2023-01-21T21:22:29.851Z,97103.97
2023-01-21T21:25:29.579Z,97099.03
2023-01-21T21:28:26.352Z,97096.00
2023-01-21T21:31:24.176Z,97106.59
2023-01-21T21:34:23.856Z,97101.94
2023-01-21T21:37:20.874Z,97110.09
2023-01-21T21:40:21.911Z,97111.91
2023-01-21T21:43:32.284Z,97097.53
2023-01-21T21:46:47.598Z,97099.94
2023-01-21T21:49:44.433Z,97099.31
2023-01-21T21:52:41.516Z,97098.09
2023-01-21T21:55:38.425Z,97101.44
2023-01-21T21:58:35.646Z,97108.22
2023-01-21T22:01:32.775Z,97102.38
2023-01-21T22:04:29.606Z,97096.94
2023-01-21T22:07:26.369Z,97112.28
2023-01-21T22:10:23.138Z,97107.22
2023-01-21T22:13:19.935Z,97102.16
2023-01-21T22:16:19.656Z,97109.38
2023-01-21T22:19:16.493Z,97107.75
2023-01-21T22:22:13.235Z,97103.69
2023-01-21T22:25:11.722Z,97110.84
2023-01-21T22:28:08.479Z,97103.53
2023-01-21T22:31:16.091Z,97114.03
2023-01-21T22:34:13.889Z,97120.09
2023-01-21T22:37:10.649Z,97112.44
2023-01-21T22:40:08.316Z,97109.59
2023-01-21T22:43:05.089Z,97108.75
2023-01-21T22:46:02.371Z,97117.91
2023-01-21T22:48:59.574Z,97114.50
2023-01-21T22:51:56.529Z,97106.38
2023-01-21T22:54:53.301Z,97103.84
2023-01-21T22:57:50.093Z,97106.38
2023-01-21T23:00:47.186Z,97106.97
2023-01-21T23:03:43.927Z,97105.72
2023-01-21T23:06:40.722Z,97113.59
2023-01-21T23:09:37.476Z,97098.84
2023-01-21T23:12:34.240Z,97109.38
2023-01-21T23:15:30.986Z,97102.25
2023-01-21T23:18:28.734Z,97102.88
2023-01-21T23:21:25.480Z,97108.97
2023-01-21T23:24:22.308Z,97104.66
2023-01-21T23:27:19.071Z,97106.25
2023-01-21T23:30:16.710Z,97098.88
2023-01-21T23:33:14.935Z,97096.41
2023-01-21T23:36:15.239Z,97096.41
2023-01-21T23:39:12.109Z,97098.75
2023-01-21T23:42:08.948Z,97103.88
2023-01-21T23:45:05.847Z,97094.53
2023-01-21T23:48:02.642Z,97100.84
2023-01-21T23:51:07.133Z,97098.53
2023-01-21T23:54:03.943Z,97097.41
2023-01-21T23:57:00.684Z,97095.97
2023-01-21T23:59:57.535Z,97098.59
